<?xml version="1.0" encoding="utf-8"?>
<gpx xmlns:xsi="http://www.w3.org/2001/XMLSchema-instance" xmlns:xsd="http://www.w3.org/2001/XMLSchema" version="1.1" creator="Shapelink.com" xmlns="http://www.topografix.com/GPX/1/1" xmlns:gpxtpx="http://www.garmin.com/xmlschemas/TrackPointExtension/v1">
  <metadata>
    <name>Övrigt 1.47 km, 2020-09-04</name>
    <desc></desc>
    <author><name>Marian Moron</name></author> 
    <time>2020-09-04T21:08:31Z</time>
  </metadata>
  <trk>
    <name>Övrigt 1.47 km, 2020-09-04</name>
    <trkseg>
      <trkpt lat="51.229788573704" lon="4.457949892446">
        <ele>0</ele>
        <time>2020-09-04T21:08:31Z</time>
      </trkpt>
      <trkpt lat="51.229916816774" lon="4.458129181287">
        <ele>7.2</ele>
        <time>2020-09-04T21:08:42Z</time>
      </trkpt>
      <trkpt lat="51.229930646909" lon="4.458189111872">
        <ele>6</ele>
        <time>2020-09-04T21:08:46Z</time>
      </trkpt>
      <trkpt lat="51.22998336906" lon="4.458593790004">
        <ele>2</ele>
        <time>2020-09-04T21:09:31Z</time>
      </trkpt>
      <trkpt lat="51.230028044587" lon="4.458798727459">
        <ele>0.6</ele>
        <time>2020-09-04T21:09:51Z</time>
      </trkpt>
      <trkpt lat="51.230429202321" lon="4.458743071643">
        <ele>0</ele>
        <time>2020-09-04T21:10:32Z</time>
      </trkpt>
      <trkpt lat="51.230524253067" lon="4.459126292111">
        <ele>0</ele>
        <time>2020-09-04T21:11:19Z</time>
      </trkpt>
      <trkpt lat="51.230642270219" lon="4.459675641837">
        <ele>0</ele>
        <time>2020-09-04T21:12:52Z</time>
      </trkpt>
      <trkpt lat="51.230661967684" lon="4.459671450887">
        <ele>0</ele>
        <time>2020-09-04T21:12:54Z</time>
      </trkpt>
      <trkpt lat="51.2306840959" lon="4.459669942145">
        <ele>0</ele>
        <time>2020-09-04T21:12:56Z</time>
      </trkpt>
      <trkpt lat="51.231127163134" lon="4.459522672162">
        <ele>0</ele>
        <time>2020-09-04T21:13:38Z</time>
      </trkpt>
      <trkpt lat="51.231573583128" lon="4.459616381804">
        <ele>0</ele>
        <time>2020-09-04T21:14:11Z</time>
      </trkpt>
      <trkpt lat="51.231632340247" lon="4.459674300733">
        <ele>0</ele>
        <time>2020-09-04T21:14:18Z</time>
      </trkpt>
      <trkpt lat="51.231902656522" lon="4.459978563703">
        <ele>0</ele>
        <time>2020-09-04T21:14:54Z</time>
      </trkpt>
      <trkpt lat="51.231965185496" lon="4.460374021745">
        <ele>0</ele>
        <time>2020-09-04T21:15:39Z</time>
      </trkpt>
      <trkpt lat="51.232020925131" lon="4.460638051595">
        <ele>0</ele>
        <time>2020-09-04T21:15:56Z</time>
      </trkpt>
      <trkpt lat="51.232098792982" lon="4.461177007765">
        <ele>0</ele>
        <time>2020-09-04T21:16:26Z</time>
      </trkpt>
      <trkpt lat="51.232145144889" lon="4.461486551332">
        <ele>12</ele>
        <time>2020-09-04T21:16:48Z</time>
      </trkpt>
      <trkpt lat="51.232298198383" lon="4.461820486228">
        <ele>24.2</ele>
        <time>2020-09-04T21:17:27Z</time>
      </trkpt>
      <trkpt lat="51.232315297459" lon="4.462214519347">
        <ele>9.6</ele>
        <time>2020-09-04T21:17:47Z</time>
      </trkpt>
      <trkpt lat="51.232340191702" lon="4.462498665757">
        <ele>0</ele>
        <time>2020-09-04T21:18:08Z</time>
      </trkpt>
      <trkpt lat="51.232287469551" lon="4.462823967296">
        <ele>6.8</ele>
        <time>2020-09-04T21:18:37Z</time>
      </trkpt>
      <trkpt lat="51.232114131859" lon="4.462717684804">
        <ele>0</ele>
        <time>2020-09-04T21:19:13Z</time>
      </trkpt>
      <trkpt lat="51.232081023354" lon="4.462393221455">
        <ele>0</ele>
        <time>2020-09-04T21:19:37Z</time>
      </trkpt>
      <trkpt lat="51.232123854863" lon="4.462102369525">
        <ele>0</ele>
        <time>2020-09-04T21:19:58Z</time>
      </trkpt>
      <trkpt lat="51.232087477417" lon="4.461745384404">
        <ele>0</ele>
        <time>2020-09-04T21:20:25Z</time>
      </trkpt>
      <trkpt lat="51.232018242923" lon="4.461537261827">
        <ele>0</ele>
        <time>2020-09-04T21:20:43Z</time>
      </trkpt>
      <trkpt lat="51.231946242402" lon="4.461450341524">
        <ele>0</ele>
        <time>2020-09-04T21:20:55Z</time>
      </trkpt>
      <trkpt lat="51.231714734324" lon="4.461444306556">
        <ele>0</ele>
        <time>2020-09-04T21:21:41Z</time>
      </trkpt>
      <trkpt lat="51.231273092013" lon="4.461623176302">
        <ele>0</ele>
        <time>2020-09-04T21:22:22Z</time>
      </trkpt>
      <trkpt lat="51.230876963419" lon="4.461959793406">
        <ele>0</ele>
        <time>2020-09-04T21:23:01Z</time>
      </trkpt>
      <trkpt lat="51.230763640131" lon="4.461989130056">
        <ele>0</ele>
        <time>2020-09-04T21:23:15Z</time>
      </trkpt>
      <trkpt lat="51.230321494906" lon="4.462108153036">
        <ele>0</ele>
        <time>2020-09-04T21:23:48Z</time>
      </trkpt>
      <trkpt lat="51.230149079223" lon="4.462167999802">
        <ele>0</ele>
        <time>2020-09-04T21:24:05Z</time>
      </trkpt>
      <trkpt lat="51.229834925611" lon="4.461998769241">
        <ele>0</ele>
        <time>2020-09-04T21:24:38Z</time>
      </trkpt>
      <trkpt lat="51.229680447194" lon="4.461833561992">
        <ele>0</ele>
        <time>2020-09-04T21:25:26Z</time>
      </trkpt>
      <trkpt lat="51.229650523811" lon="4.461830209232">
        <ele>0</ele>
        <time>2020-09-04T21:25:29Z</time>
      </trkpt>
      <trkpt lat="51.229205780197" lon="4.461903634676">
        <ele>6.4</ele>
        <time>2020-09-04T21:26:15Z</time>
      </trkpt>
      <trkpt lat="51.229126403604" lon="4.461887709066">
        <ele>11</ele>
        <time>2020-09-04T21:26:21Z</time>
      </trkpt>
      <trkpt lat="51.228992125566" lon="4.461753095752">
        <ele>16.4</ele>
        <time>2020-09-04T21:26:48Z</time>
      </trkpt>
      <trkpt lat="51.228966812228" lon="4.461510272109">
        <ele>14.8</ele>
        <time>2020-09-04T21:27:13Z</time>
      </trkpt>
      <trkpt lat="51.228692053546" lon="4.461290833967">
        <ele>0</ele>
        <time>2020-09-04T21:27:52Z</time>
      </trkpt>
      <trkpt lat="51.228397597399" lon="4.460751207245">
        <ele>0</ele>
        <time>2020-09-04T21:28:40Z</time>
      </trkpt>
      <trkpt lat="51.228206154803" lon="4.460441244583">
        <ele>2.4</ele>
        <time>2020-09-04T21:29:09Z</time>
      </trkpt>
      <trkpt lat="51.228307743431" lon="4.459839088887">
        <ele>0</ele>
        <time>2020-09-04T21:29:55Z</time>
      </trkpt>
      <trkpt lat="51.228482841322" lon="4.459180942099">
        <ele>0</ele>
        <time>2020-09-04T21:30:42Z</time>
      </trkpt>
      <trkpt lat="51.22853246217" lon="4.458898472069">
        <ele>0.8</ele>
        <time>2020-09-04T21:31:02Z</time>
      </trkpt>
      <trkpt lat="51.228525421374" lon="4.458833596163">
        <ele>0</ele>
        <time>2020-09-04T21:31:06Z</time>
      </trkpt>
      <trkpt lat="51.228486529358" lon="4.458280390763">
        <ele>0</ele>
        <time>2020-09-04T21:31:43Z</time>
      </trkpt>
      <trkpt lat="51.228550567074" lon="4.458163966172">
        <ele>0</ele>
        <time>2020-09-04T21:31:57Z</time>
      </trkpt>
      <trkpt lat="51.229001345656" lon="4.458131276762">
        <ele>1.2</ele>
        <time>2020-09-04T21:32:51Z</time>
      </trkpt>
      <trkpt lat="51.229035292351" lon="4.458124655061">
        <ele>2</ele>
        <time>2020-09-04T21:32:54Z</time>
      </trkpt>
      <trkpt lat="51.229474252454" lon="4.45792944061">
        <ele>10.6</ele>
        <time>2020-09-04T21:33:40Z</time>
      </trkpt>
      <trkpt lat="51.229519347076" lon="4.457908318222">
        <ele>12.6</ele>
        <time>2020-09-04T21:33:46Z</time>
      </trkpt>
    </trkseg>
  </trk>
</gpx>